createdAt,value
2023-04-01T00:09:30.008Z,7.52
2023-04-01T00:19:51.488Z,7.52
2023-04-01T00:30:12.994Z,7.51
2023-04-01T00:40:40.431Z,7.47
2023-04-01T00:51:05.006Z,7.44
2023-04-01T01:01:26.877Z,7.48
2023-04-01T01:12:29.641Z,7.50
2023-04-01T01:22:53.761Z,7.47
2023-04-01T01:33:18.120Z,7.46
2023-04-01T01:43:45.530Z,7.45
2023-04-01T01:54:13.817Z,7.46
2023-04-01T02:04:40.769Z,7.44
2023-04-01T02:15:09.876Z,7.46
2023-04-01T02:25:36.072Z,7.46
2023-04-01T02:35:58.046Z,7.46
2023-04-01T02:46:19.382Z,7.48
2023-04-01T02:56:40.654Z,7.47
2023-04-01T03:07:02.323Z,7.46
2023-04-01T03:17:23.442Z,7.45
2023-04-01T03:27:46.027Z,7.45
2023-04-01T03:38:07.371Z,7.45
2023-04-01T03:48:28.661Z,7.44
2023-04-01T03:58:50.129Z,7.44
2023-04-01T04:09:11.593Z,7.43
2023-04-01T04:19:36.826Z,7.44
2023-04-01T04:29:58.658Z,7.43
2023-04-01T04:40:20.508Z,7.42
2023-04-01T04:50:42.446Z,7.41
2023-04-01T05:01:12.194Z,7.39
2023-04-01T05:11:34.576Z,7.40
2023-04-01T05:21:56.202Z,7.40
2023-04-01T05:32:17.737Z,7.36
2023-04-01T05:42:39.207Z,7.35
2023-04-01T05:53:01.090Z,7.37
2023-04-01T06:03:22.514Z,7.42
2023-04-01T06:13:55.882Z,7.52
2023-04-01T06:24:39.875Z,7.62
2023-04-01T06:35:27.893Z,7.70
2023-04-01T06:45:59.456Z,7.74
2023-04-01T06:56:42.131Z,7.79
2023-04-01T07:07:14.624Z,7.85
2023-04-01T07:17:46.841Z,7.91
2023-04-01T07:28:14.414Z,7.94
2023-04-01T07:38:51.402Z,7.96
2023-04-01T07:49:29.623Z,8.04
2023-04-01T08:00:13.786Z,8.10
2023-04-01T08:11:02.252Z,8.14
2023-04-01T08:21:49.446Z,8.18
2023-04-01T08:32:14.855Z,8.23
2023-04-01T08:43:13.332Z,8.27
2023-04-01T08:53:42.336Z,8.36
2023-04-01T09:04:20.780Z,8.54
2023-04-01T09:15:19.855Z,8.69
2023-04-01T09:25:59.969Z,8.77
2023-04-01T09:36:48.203Z,8.79
2023-04-01T09:47:41.253Z,8.79
2023-04-01T09:58:02.701Z,8.82
2023-04-01T10:08:53.558Z,8.90
2023-04-01T10:19:56.179Z,8.97
2023-04-01T10:30:42.793Z,8.98
2023-04-01T10:41:23.451Z,9.06
2023-04-01T10:52:43.024Z,9.21
2023-04-01T11:03:38.197Z,9.26
2023-04-01T11:14:42.688Z,9.25
2023-04-01T11:25:20.091Z,9.31
2023-04-01T11:36:11.215Z,9.39
2023-04-01T11:47:09.987Z,9.47
2023-04-01T11:57:43.761Z,9.56
2023-04-01T12:08:11.092Z,9.71
2023-04-01T12:18:43.753Z,9.84
2023-04-01T12:29:19.848Z,9.87
2023-04-01T12:39:56.554Z,9.87
2023-04-01T12:50:36.443Z,9.89
2023-04-01T13:01:02.061Z,9.87
2023-04-01T13:11:38.678Z,9.89
2023-04-01T13:22:25.552Z,9.89
2023-04-01T13:33:04.246Z,9.86
2023-04-01T13:43:44.509Z,9.85
2023-04-01T13:54:11.961Z,9.83
2023-04-01T14:04:56.145Z,9.82
2023-04-01T14:15:30.943Z,9.78
2023-04-01T14:26:21.554Z,9.74
2023-04-01T14:36:51.537Z,9.73
2023-04-01T14:47:31.147Z,9.72
2023-04-01T14:58:16.558Z,9.81
2023-04-01T15:08:56.058Z,9.78
2023-04-01T15:19:31.015Z,9.77
2023-04-01T15:30:02.408Z,9.83
2023-04-01T15:40:39.012Z,9.82
2023-04-01T15:51:29.084Z,9.79
2023-04-01T16:01:53.377Z,9.74
2023-04-01T16:12:23.103Z,9.71
2023-04-01T16:23:01.574Z,9.65
2023-04-01T16:33:52.530Z,9.65
2023-04-01T16:44:23.338Z,9.61
2023-04-01T16:54:54.823Z,9.54
2023-04-01T17:05:16.758Z,9.49
2023-04-01T17:16:15.911Z,9.50
2023-04-01T17:27:04.065Z,9.50
2023-04-01T17:37:37.140Z,9.46
2023-04-01T17:48:34.493Z,9.38
2023-04-01T17:59:01.532Z,9.34
2023-04-01T18:09:55.099Z,9.32
2023-04-01T18:20:40.357Z,9.31
2023-04-01T18:31:25.863Z,9.27
2023-04-01T18:41:55.694Z,9.19
2023-04-01T18:52:17.528Z,9.13
2023-04-01T19:02:49.349Z,9.09
2023-04-01T19:13:21.685Z,9.01
2023-04-01T19:24:02.091Z,8.96
2023-04-01T19:34:49.521Z,8.92
2023-04-01T19:45:29.551Z,8.88
2023-04-01T19:56:03.020Z,8.84
2023-04-01T20:06:44.554Z,8.82
2023-04-01T20:17:34.038Z,8.81
2023-04-01T20:28:24.591Z,8.83
2023-04-01T20:39:04.329Z,8.81
2023-04-01T20:49:36.539Z,8.81
2023-04-01T21:00:01.489Z,8.78
2023-04-01T21:10:45.175Z,8.74
2023-04-01T21:21:31.734Z,8.71
2023-04-01T21:32:05.103Z,8.69
2023-04-01T21:42:52.285Z,8.65
2023-04-01T21:53:35.286Z,8.62
2023-04-01T22:04:12.068Z,8.63
2023-04-01T22:15:07.764Z,8.63
2023-04-01T22:25:41.381Z,8.59
2023-04-01T22:36:41.674Z,8.59
2023-04-01T22:47:18.602Z,8.58
2023-04-01T22:57:41.586Z,8.59
2023-04-01T23:08:25.731Z,8.59
2023-04-01T23:19:01.691Z,8.59
2023-04-01T23:29:23.825Z,8.59
2023-04-01T23:39:50.731Z,8.55
2023-04-01T23:50:16.095Z,8.53
